createdAt,value
2022-08-23T00:01:59.971Z,25.76
2022-08-23T00:04:34.870Z,25.79
2022-08-23T00:07:03.765Z,25.79
2022-08-23T00:09:30.375Z,25.95
2022-08-23T00:12:12.390Z,25.57
2022-08-23T00:17:31.127Z,25.60
2022-08-23T00:20:12.155Z,25.70
2022-08-23T00:22:39.973Z,25.77
2022-08-23T00:25:08.831Z,25.85
2022-08-23T00:27:36.350Z,25.76
2022-08-23T00:30:05.692Z,25.76
2022-08-23T00:32:35.624Z,25.51
2022-08-23T00:35:04.369Z,25.55
2022-08-23T00:37:32.418Z,26.00
2022-08-23T00:39:59.855Z,25.84
2022-08-23T00:43:15.848Z,25.94
2022-08-23T00:46:10.233Z,25.89
2022-08-23T00:48:40.373Z,25.81
2022-08-23T00:51:21.352Z,26.12
2022-08-23T00:53:55.531Z,25.79
2022-08-23T00:56:25.188Z,25.79
2022-08-23T00:58:54.492Z,25.68
2022-08-23T01:01:25.448Z,25.71
2022-08-23T01:03:59.094Z,25.36
2022-08-23T01:06:49.830Z,25.53
2022-08-23T01:09:19.343Z,25.43
2022-08-23T01:11:54.364Z,25.51
2022-08-23T01:14:36.166Z,25.52
2022-08-23T01:17:10.437Z,25.42
2022-08-23T01:19:41.979Z,25.56
2022-08-23T01:22:17.108Z,25.72
2022-08-23T01:25:05.960Z,25.56
2022-08-23T01:27:33.239Z,25.74
2022-08-23T01:30:00.108Z,25.40
2022-08-23T01:32:27.283Z,25.77
2022-08-23T01:34:53.897Z,25.70
2022-08-23T01:37:21.724Z,25.70
2022-08-23T01:39:49.598Z,25.75
2022-08-23T01:42:16.263Z,25.76
2022-08-23T01:44:43.242Z,26.10
2022-08-23T01:47:10.094Z,25.86
2022-08-23T01:49:37.493Z,25.57
2022-08-23T01:52:04.280Z,25.39
2022-08-23T01:54:31.317Z,25.46
2022-08-23T01:56:58.912Z,25.42
2022-08-23T01:59:25.952Z,25.70
2022-08-23T02:01:54.432Z,25.92
2022-08-23T02:04:22.491Z,25.59
2022-08-23T02:06:49.198Z,25.43
2022-08-23T02:09:20.064Z,25.43
2022-08-23T02:11:48.048Z,25.52
2022-08-23T02:14:21.631Z,25.25
2022-08-23T02:17:03.767Z,25.07
2022-08-23T02:19:38.346Z,25.04
2022-08-23T02:22:07.718Z,25.05
2022-08-23T02:24:35.491Z,25.11
2022-08-23T02:27:05.242Z,25.08
2022-08-23T02:29:39.352Z,24.90
2022-08-23T02:32:09.622Z,25.07
2022-08-23T02:34:37.518Z,25.00
2022-08-23T02:37:06.101Z,25.44
2022-08-23T02:39:32.847Z,25.27
2022-08-23T02:42:01.026Z,25.13
2022-08-23T02:44:31.389Z,25.05
2022-08-23T02:46:58.789Z,25.31
2022-08-23T02:49:25.392Z,25.24
2022-08-23T02:51:53.773Z,25.35
2022-08-23T02:54:20.919Z,25.32
2022-08-23T02:56:47.567Z,25.19
2022-08-23T02:59:14.853Z,25.37
2022-08-23T03:01:41.636Z,25.37
2022-08-23T03:04:20.072Z,25.60
2022-08-23T03:06:47.020Z,25.17
2022-08-23T03:09:14.103Z,25.28
2022-08-23T03:11:45.339Z,25.11
2022-08-23T03:14:13.480Z,25.02
2022-08-23T03:16:42.241Z,25.12
2022-08-23T03:19:09.843Z,25.07
2022-08-23T03:21:36.585Z,24.87
2022-08-23T03:24:08.092Z,24.61
2022-08-23T03:26:42.500Z,24.49
2022-08-23T03:29:10.484Z,24.67
2022-08-23T03:31:54.584Z,24.69
2022-08-23T03:34:22.043Z,24.52
2022-08-23T03:36:49.361Z,24.58
2022-08-23T03:39:16.378Z,24.44
2022-08-23T03:41:43.272Z,24.15
2022-08-23T03:44:09.890Z,24.06
2022-08-23T03:46:40.543Z,24.01
2022-08-23T03:49:07.323Z,23.88
2022-08-23T03:51:47.803Z,23.92
2022-08-23T03:54:14.369Z,24.14
2022-08-23T03:56:52.695Z,24.15
2022-08-23T03:59:19.505Z,24.18
2022-08-23T04:01:46.430Z,24.01
2022-08-23T04:04:13.362Z,24.02
2022-08-23T04:06:52.688Z,23.98
2022-08-23T04:09:19.458Z,24.19
2022-08-23T04:11:47.346Z,23.93
2022-08-23T04:14:14.468Z,23.85
2022-08-23T04:16:41.605Z,23.97
2022-08-23T04:19:13.374Z,23.63
2022-08-23T04:21:52.038Z,23.51
2022-08-23T04:24:19.833Z,23.83
2022-08-23T04:26:46.738Z,23.88
2022-08-23T04:29:24.871Z,23.80
2022-08-23T04:32:05.280Z,23.72
2022-08-23T04:34:36.116Z,23.51
2022-08-23T04:37:02.872Z,23.58
2022-08-23T04:39:30.054Z,23.58
2022-08-23T04:42:16.816Z,23.66
2022-08-23T04:44:44.655Z,23.73
2022-08-23T04:47:11.732Z,23.80
2022-08-23T04:49:38.840Z,23.82
2022-08-23T04:52:05.685Z,23.40
2022-08-23T04:54:32.909Z,23.73
2022-08-23T04:57:21.403Z,23.57
2022-08-23T04:59:48.722Z,23.60
2022-08-23T05:02:16.214Z,23.68
2022-08-23T05:04:43.180Z,23.73
2022-08-23T05:07:10.102Z,23.99
2022-08-23T05:09:36.800Z,24.37
2022-08-23T05:12:03.942Z,25.19
2022-08-23T05:14:32.240Z,26.45
2022-08-23T05:16:58.951Z,27.60
2022-08-23T05:19:26.376Z,28.53
2022-08-23T05:21:56.867Z,29.21
2022-08-23T05:24:29.731Z,29.37
2022-08-23T05:26:56.352Z,29.94
2022-08-23T05:29:23.512Z,30.48
2022-08-23T05:31:50.975Z,30.92
2022-08-23T05:34:22.507Z,31.53
2022-08-23T05:36:56.217Z,32.20
2022-08-23T05:39:37.056Z,33.21
2022-08-23T05:42:08.494Z,33.87
2022-08-23T05:44:36.322Z,34.33
2022-08-23T05:47:11.169Z,34.19
2022-08-23T05:49:47.210Z,34.09
2022-08-23T05:52:14.447Z,32.08
2022-08-23T05:54:43.023Z,30.57
2022-08-23T05:57:29.030Z,29.18
2022-08-23T05:59:55.819Z,28.55
2022-08-23T06:02:22.633Z,28.48
2022-08-23T06:04:51.589Z,27.80
2022-08-23T06:07:21.950Z,27.29
2022-08-23T06:09:48.902Z,27.13
2022-08-23T06:12:16.031Z,27.32
2022-08-23T06:14:42.848Z,27.26
2022-08-23T06:17:09.384Z,27.43
2022-08-23T06:19:36.360Z,27.52
2022-08-23T06:22:17.930Z,27.31
2022-08-23T06:24:45.092Z,26.77
2022-08-23T06:27:13.930Z,27.08
2022-08-23T06:29:41.577Z,26.81
2022-08-23T06:32:26.864Z,26.57
2022-08-23T06:35:39.421Z,26.72
2022-08-23T06:38:46.043Z,26.96
2022-08-23T06:41:32.112Z,28.78
2022-08-23T06:44:08.295Z,31.11
2022-08-23T06:46:57.037Z,32.35
2022-08-23T06:49:25.098Z,32.21
2022-08-23T06:51:55.069Z,31.45
2022-08-23T06:54:35.320Z,32.07
2022-08-23T06:57:29.324Z,33.98
2022-08-23T07:00:17.847Z,35.23
2022-08-23T07:03:00.435Z,36.01
2022-08-23T07:05:46.252Z,35.77
2022-08-23T07:08:20.984Z,35.83
2022-08-23T07:10:47.701Z,34.83
2022-08-23T07:13:18.386Z,34.56
2022-08-23T07:15:45.586Z,34.80
2022-08-23T07:18:18.368Z,35.50
2022-08-23T07:20:45.066Z,35.44
2022-08-23T07:23:11.904Z,35.56
2022-08-23T07:25:40.845Z,35.86
2022-08-23T07:28:12.159Z,36.64
2022-08-23T07:30:44.968Z,36.56
2022-08-23T07:33:12.563Z,37.54
2022-08-23T07:35:59.630Z,37.63
2022-08-23T07:38:29.956Z,37.22
2022-08-23T07:40:58.799Z,37.23
2022-08-23T07:43:25.814Z,37.74
2022-08-23T07:45:53.402Z,37.91
2022-08-23T07:48:43.371Z,38.20
2022-08-23T07:51:16.845Z,37.94
2022-08-23T07:53:46.197Z,37.12
2022-08-23T07:56:18.762Z,37.04
2022-08-23T07:59:06.799Z,37.09
2022-08-23T08:02:00.223Z,37.29
2022-08-23T08:04:29.281Z,37.24
2022-08-23T08:07:17.558Z,36.26
2022-08-23T08:09:46.024Z,37.14
2022-08-23T08:12:14.278Z,36.61
2022-08-23T08:14:43.168Z,37.58
2022-08-23T08:17:12.358Z,36.92
2022-08-23T08:19:57.755Z,36.01
2022-08-23T08:22:47.545Z,36.17
2022-08-23T08:25:34.089Z,36.00
2022-08-23T08:28:03.268Z,36.61
2022-08-23T08:30:30.702Z,37.29
2022-08-23T08:32:57.766Z,37.64
2022-08-23T08:35:25.104Z,37.66
2022-08-23T08:37:52.761Z,37.76
2022-08-23T08:40:30.126Z,37.02
2022-08-23T08:43:18.524Z,36.63
2022-08-23T08:45:59.202Z,36.32
2022-08-23T08:48:30.207Z,35.68
2022-08-23T08:51:04.022Z,35.39
2022-08-23T08:53:46.479Z,35.48
2022-08-23T08:56:32.205Z,34.78
2022-08-23T08:59:19.591Z,34.47
2022-08-23T09:01:48.636Z,34.65
2022-08-23T09:04:22.222Z,34.78
2022-08-23T09:07:01.203Z,34.77
2022-08-23T09:09:49.791Z,33.86
2022-08-23T09:12:43.782Z,33.86
2022-08-23T09:15:20.656Z,33.73
2022-08-23T09:17:58.036Z,33.63
2022-08-23T09:20:32.964Z,33.31
2022-08-23T09:23:08.972Z,33.27
2022-08-23T09:25:38.032Z,33.29
2022-08-23T09:28:15.740Z,33.13
2022-08-23T09:30:55.437Z,33.25
2022-08-23T09:33:39.137Z,33.43
2022-08-23T09:36:21.471Z,33.49
2022-08-23T09:38:53.148Z,33.67
2022-08-23T09:41:27.569Z,33.92
2022-08-23T09:43:56.975Z,33.91
2022-08-23T09:46:31.052Z,33.36
2022-08-23T09:48:59.052Z,33.08
2022-08-23T09:51:37.670Z,32.67
2022-08-23T09:54:12.003Z,33.05
2022-08-23T09:56:42.543Z,33.05
2022-08-23T09:59:51.597Z,33.03
2022-08-23T10:02:34.042Z,32.85
2022-08-23T10:05:15.535Z,33.13
2022-08-23T10:07:52.880Z,33.35
2022-08-23T10:10:30.338Z,33.43
2022-08-23T10:13:01.232Z,33.88
2022-08-23T10:15:52.697Z,33.49
2022-08-23T10:18:38.239Z,33.57
2022-08-23T10:21:20.341Z,33.88
2022-08-23T10:24:07.999Z,33.35
2022-08-23T10:26:39.252Z,33.39
2022-08-23T10:29:37.112Z,33.20
2022-08-23T10:32:24.663Z,33.21
2022-08-23T10:35:06.655Z,33.79
2022-08-23T10:37:47.871Z,33.44
2022-08-23T10:40:38.156Z,33.25
2022-08-23T10:43:34.731Z,33.39
2022-08-23T10:46:02.526Z,33.53
2022-08-23T10:48:58.407Z,33.46
2022-08-23T10:51:32.741Z,33.51
2022-08-23T10:54:29.381Z,33.16
2022-08-23T10:56:57.351Z,33.66
2022-08-23T10:59:27.154Z,33.53
2022-08-23T11:02:25.152Z,33.43
2022-08-23T11:05:20.118Z,33.88
2022-08-23T11:08:08.056Z,34.13
2022-08-23T11:10:39.941Z,34.51
2022-08-23T11:13:10.668Z,34.09
2022-08-23T11:15:47.137Z,34.09
2022-08-23T11:18:33.599Z,33.98
2022-08-23T11:21:06.826Z,34.18
2022-08-23T11:23:54.575Z,34.12
2022-08-23T11:26:23.042Z,34.16
2022-08-23T11:28:51.433Z,34.17
2022-08-23T11:31:43.540Z,34.14
2022-08-23T11:34:29.564Z,33.86
2022-08-23T11:37:19.359Z,33.69
2022-08-23T11:39:58.551Z,33.99
2022-08-23T11:42:50.500Z,34.48
2022-08-23T11:45:39.176Z,34.68
2022-08-23T11:48:11.982Z,35.24
2022-08-23T11:50:55.846Z,35.67
2022-08-23T11:53:39.895Z,35.49
2022-08-23T11:56:25.099Z,35.24
2022-08-23T11:59:26.198Z,34.94
2022-08-23T12:01:52.951Z,34.96
2022-08-23T12:04:36.341Z,34.65
2022-08-23T12:07:12.192Z,34.44
2022-08-23T12:09:41.875Z,34.44
2022-08-23T12:12:20.512Z,34.62
2022-08-23T12:14:47.555Z,34.97
2022-08-23T12:17:27.566Z,34.95
2022-08-23T12:20:04.304Z,35.23
2022-08-23T12:22:54.644Z,35.32
2022-08-23T12:25:22.993Z,34.66
2022-08-23T12:27:55.363Z,35.06
2022-08-23T12:30:28.715Z,35.29
2022-08-23T12:33:33.485Z,34.84
2022-08-23T12:36:54.639Z,35.05
2022-08-23T12:39:33.389Z,35.01
2022-08-23T12:42:05.770Z,34.99
2022-08-23T12:44:34.022Z,35.44
2022-08-23T12:47:17.030Z,35.52
2022-08-23T12:49:59.105Z,35.80
2022-08-23T12:52:28.922Z,35.59
2022-08-23T12:54:57.889Z,35.32
2022-08-23T12:57:32.709Z,35.47
2022-08-23T13:00:16.661Z,35.54
2022-08-23T13:03:17.905Z,35.97
2022-08-23T13:05:57.045Z,35.93
2022-08-23T13:08:40.828Z,35.67
2022-08-23T13:11:10.264Z,35.41
2022-08-23T13:13:39.950Z,35.14
2022-08-23T13:16:28.512Z,35.31
2022-08-23T13:19:09.902Z,35.17
2022-08-23T13:21:39.707Z,35.46
2022-08-23T13:24:37.872Z,35.45
2022-08-23T13:27:38.314Z,35.82
2022-08-23T13:30:08.451Z,35.57
2022-08-23T13:32:39.603Z,35.42
2022-08-23T13:35:37.163Z,35.36
2022-08-23T13:38:21.564Z,35.52
2022-08-23T13:41:01.953Z,35.58
2022-08-23T13:43:46.468Z,35.87
2022-08-23T13:46:22.607Z,35.90
2022-08-23T13:48:57.271Z,35.89
2022-08-23T13:51:38.613Z,36.01
2022-08-23T13:54:12.085Z,35.74
2022-08-23T13:56:50.462Z,36.01
2022-08-23T13:59:36.135Z,35.71
2022-08-23T14:02:08.490Z,36.24
2022-08-23T14:04:35.154Z,35.66
2022-08-23T14:07:02.098Z,35.79
2022-08-23T14:09:28.694Z,35.58
2022-08-23T14:11:58.936Z,35.70
2022-08-23T14:14:27.974Z,35.10
2022-08-23T14:16:57.708Z,35.13
2022-08-23T14:22:16.577Z,35.08
2022-08-23T14:24:45.416Z,35.34
2022-08-23T14:27:12.558Z,35.57
2022-08-23T14:29:39.110Z,35.73
2022-08-23T14:32:05.752Z,35.28
2022-08-23T14:34:32.452Z,35.06
2022-08-23T14:39:45.882Z,35.20
2022-08-23T14:42:16.606Z,35.23
2022-08-23T14:44:43.240Z,35.27
2022-08-23T14:47:10.199Z,35.10
2022-08-23T14:49:36.821Z,35.17
2022-08-23T14:52:03.713Z,35.17
2022-08-23T14:54:31.200Z,35.87
2022-08-23T14:56:57.818Z,35.98
2022-08-23T14:59:24.431Z,35.47
2022-08-23T15:01:53.254Z,35.41
2022-08-23T15:04:23.160Z,35.53
2022-08-23T15:07:16.045Z,35.39
2022-08-23T15:09:38.360Z,35.56
2022-08-23T15:14:52.706Z,35.33
2022-08-23T15:17:19.308Z,35.50
2022-08-23T15:19:45.870Z,35.36
2022-08-23T15:22:18.784Z,35.24
2022-08-23T15:24:49.118Z,35.57
2022-08-23T15:27:16.054Z,35.72
2022-08-23T15:29:42.650Z,35.79
2022-08-23T15:32:11.001Z,35.29
2022-08-23T15:34:40.107Z,35.40
2022-08-23T15:37:13.613Z,35.46
2022-08-23T15:39:41.741Z,35.78
2022-08-23T15:42:08.485Z,36.06
2022-08-23T15:44:35.256Z,35.96
2022-08-23T15:47:04.723Z,35.83
2022-08-23T15:49:36.143Z,35.19
2022-08-23T15:52:04.505Z,35.40
2022-08-23T15:54:31.880Z,35.63
2022-08-23T15:56:58.693Z,35.42
2022-08-23T15:59:25.641Z,35.19
2022-08-23T16:01:52.670Z,35.25
2022-08-23T16:04:19.433Z,35.22
2022-08-23T16:06:46.827Z,35.26
2022-08-23T16:09:23.558Z,35.20
2022-08-23T16:11:51.967Z,35.00
2022-08-23T16:14:19.059Z,34.98
2022-08-23T16:16:46.730Z,35.16
2022-08-23T16:19:14.206Z,35.17
2022-08-23T16:21:43.827Z,35.40
2022-08-23T16:24:10.721Z,35.07
2022-08-23T16:26:41.910Z,34.85
2022-08-23T16:29:10.977Z,34.94
2022-08-23T16:31:39.823Z,34.97
2022-08-23T16:34:14.232Z,35.03
2022-08-23T16:36:43.887Z,34.88
2022-08-23T16:39:14.461Z,34.86
2022-08-23T16:41:41.147Z,34.61
2022-08-23T16:44:07.978Z,34.50
2022-08-23T16:46:36.227Z,34.30
2022-08-23T16:49:02.942Z,34.08
2022-08-23T16:51:29.569Z,34.02
2022-08-23T16:54:02.321Z,34.13
2022-08-23T16:56:34.133Z,33.73
2022-08-23T16:59:01.623Z,33.99
2022-08-23T17:01:29.292Z,33.80
2022-08-23T17:03:56.555Z,33.89
2022-08-23T17:06:23.128Z,33.64
2022-08-23T17:08:49.934Z,33.64
2022-08-23T17:11:19.044Z,34.01
2022-08-23T17:13:45.944Z,34.13
2022-08-23T17:16:12.668Z,33.57
2022-08-23T17:18:39.292Z,33.24
2022-08-23T17:21:07.071Z,33.41
2022-08-23T17:23:34.096Z,33.35
2022-08-23T17:26:09.329Z,33.37
2022-08-23T17:28:35.934Z,33.23
2022-08-23T17:31:02.872Z,33.38
2022-08-23T17:33:29.538Z,33.35
2022-08-23T17:35:56.423Z,33.20
2022-08-23T17:38:22.969Z,32.83
2022-08-23T17:40:49.847Z,32.86
2022-08-23T17:43:16.466Z,33.21
2022-08-23T17:45:48.294Z,32.95
2022-08-23T17:48:17.475Z,33.28
2022-08-23T17:50:46.123Z,33.46
2022-08-23T17:53:14.460Z,33.52
2022-08-23T17:55:41.632Z,33.44
2022-08-23T17:58:10.589Z,33.21
2022-08-23T18:00:39.205Z,33.11
2022-08-23T18:03:06.831Z,33.35
2022-08-23T18:05:36.983Z,33.50
2022-08-23T18:08:04.467Z,33.25
2022-08-23T18:10:31.093Z,33.10
2022-08-23T18:12:58.482Z,33.03
2022-08-23T18:15:26.554Z,33.03
2022-08-23T18:17:58.347Z,32.94
2022-08-23T18:20:27.859Z,32.95
2022-08-23T18:22:55.584Z,32.84
2022-08-23T18:25:22.598Z,32.88
2022-08-23T18:28:08.452Z,32.73
2022-08-23T18:30:50.679Z,32.54
2022-08-23T18:33:19.480Z,32.45
2022-08-23T18:35:47.275Z,32.36
2022-08-23T18:38:14.633Z,32.16
2022-08-23T18:40:46.797Z,32.03
2022-08-23T18:43:20.508Z,32.08
2022-08-23T18:45:49.763Z,31.98
2022-08-23T18:48:16.936Z,31.91
2022-08-23T18:50:43.703Z,31.70
2022-08-23T18:53:12.702Z,31.95
2022-08-23T18:55:40.851Z,31.85
2022-08-23T18:58:08.021Z,31.72
2022-08-23T19:00:37.536Z,31.75
2022-08-23T19:03:06.166Z,31.63
2022-08-23T19:05:41.489Z,31.37
2022-08-23T19:08:11.313Z,31.16
2022-08-23T19:10:38.864Z,31.43
2022-08-23T19:13:06.492Z,31.56
2022-08-23T19:15:34.621Z,31.50
2022-08-23T19:18:02.618Z,31.48
2022-08-23T19:20:30.629Z,31.40
2022-08-23T19:22:57.546Z,31.26
2022-08-23T19:25:25.232Z,30.99
2022-08-23T19:27:52.227Z,30.52
2022-08-23T19:30:19.204Z,30.47
2022-08-23T19:32:46.695Z,30.32
2022-08-23T19:35:14.413Z,30.27
2022-08-23T19:37:41.024Z,30.26
2022-08-23T19:40:08.229Z,30.18
2022-08-23T19:42:37.046Z,30.03
2022-08-23T19:45:05.382Z,29.88
2022-08-23T19:47:32.791Z,29.73
2022-08-23T19:49:59.472Z,29.83
2022-08-23T19:52:26.804Z,29.40
2022-08-23T19:54:57.942Z,29.43
2022-08-23T19:57:32.684Z,29.57
2022-08-23T20:00:00.859Z,29.40
2022-08-23T20:02:28.151Z,29.29
2022-08-23T20:04:55.052Z,29.16
2022-08-23T20:07:21.691Z,29.11
2022-08-23T20:09:49.333Z,29.01
2022-08-23T20:12:17.226Z,28.75
2022-08-23T20:14:45.530Z,28.66
2022-08-23T20:17:13.482Z,28.55
2022-08-23T20:19:41.814Z,28.40
2022-08-23T20:22:27.423Z,28.15
2022-08-23T20:24:54.015Z,28.38
2022-08-23T20:27:29.098Z,28.31
2022-08-23T20:29:58.852Z,28.58
2022-08-23T20:32:26.350Z,28.77
2022-08-23T20:34:53.115Z,28.67
2022-08-23T20:37:19.695Z,28.45
2022-08-23T20:39:46.387Z,28.38
2022-08-23T20:42:13.191Z,28.25
2022-08-23T20:44:39.867Z,28.13
2022-08-23T20:47:06.521Z,28.15
2022-08-23T20:49:33.190Z,28.04
2022-08-23T20:51:59.735Z,27.98
2022-08-23T20:54:26.322Z,28.07
2022-08-23T20:56:53.199Z,28.16
2022-08-23T20:59:20.710Z,28.21
2022-08-23T21:01:48.415Z,28.07
2022-08-23T21:04:15.202Z,28.31
2022-08-23T21:06:48.335Z,28.22
2022-08-23T21:09:19.283Z,28.13
2022-08-23T21:11:50.357Z,27.78
2022-08-23T21:14:19.531Z,27.65
2022-08-23T21:16:47.243Z,28.28
2022-08-23T21:19:14.598Z,28.33
2022-08-23T21:21:42.324Z,28.02
2022-08-23T21:24:10.652Z,27.92
2022-08-23T21:26:37.682Z,27.95
2022-08-23T21:29:05.709Z,28.09
2022-08-23T21:31:32.678Z,28.42
2022-08-23T21:34:02.382Z,28.23
2022-08-23T21:36:29.113Z,27.95
2022-08-23T21:38:55.976Z,28.13
2022-08-23T21:41:44.639Z,27.94
2022-08-23T21:44:17.335Z,28.29
2022-08-23T21:46:44.905Z,28.16
2022-08-23T21:49:12.518Z,28.29
2022-08-23T21:51:40.912Z,28.33
2022-08-23T21:54:09.226Z,28.41
2022-08-23T21:56:36.910Z,28.31
2022-08-23T21:59:07.486Z,28.09
2022-08-23T22:01:35.553Z,28.03
2022-08-23T22:04:04.589Z,27.63
2022-08-23T22:06:32.066Z,27.52
2022-08-23T22:08:59.028Z,27.60
2022-08-23T22:11:25.739Z,27.59
2022-08-23T22:13:53.976Z,27.60
2022-08-23T22:16:21.617Z,27.44
2022-08-23T22:18:48.480Z,27.60
2022-08-23T22:21:15.275Z,27.54
2022-08-23T22:23:44.604Z,27.66
2022-08-23T22:26:13.789Z,27.49
2022-08-23T22:28:44.418Z,27.47
2022-08-23T22:31:14.248Z,27.56
2022-08-23T22:33:42.308Z,27.57
2022-08-23T22:36:13.101Z,27.48
2022-08-23T22:38:40.653Z,27.37
2022-08-23T22:41:07.223Z,27.55
2022-08-23T22:43:34.408Z,27.38
2022-08-23T22:46:03.639Z,27.10
2022-08-23T22:48:32.695Z,26.98
2022-08-23T22:51:12.568Z,27.21
2022-08-23T22:53:41.604Z,27.12
2022-08-23T22:56:12.216Z,27.13
2022-08-23T22:58:40.342Z,27.14
2022-08-23T23:01:13.267Z,27.04
2022-08-23T23:03:41.430Z,26.84
2022-08-23T23:06:08.768Z,26.92
2022-08-23T23:08:35.312Z,27.16
2022-08-23T23:11:04.544Z,27.15
2022-08-23T23:13:31.891Z,27.29
2022-08-23T23:16:03.116Z,27.31
2022-08-23T23:18:30.091Z,26.92
2022-08-23T23:21:01.904Z,26.74
2022-08-23T23:23:29.842Z,26.83
2022-08-23T23:25:58.172Z,27.03
2022-08-23T23:28:25.046Z,27.01
2022-08-23T23:30:53.913Z,26.85
2022-08-23T23:33:21.712Z,26.98
2022-08-23T23:35:48.843Z,26.84
2022-08-23T23:38:15.912Z,26.89
2022-08-23T23:40:43.684Z,26.95
2022-08-23T23:43:13.035Z,26.98
2022-08-23T23:45:41.009Z,26.89
2022-08-23T23:48:08.817Z,26.82
2022-08-23T23:50:36.896Z,26.83
2022-08-23T23:53:05.128Z,27.01
2022-08-23T23:55:31.672Z,26.71
2022-08-23T23:57:58.584Z,26.64
